Time;durP1;ratioP1;P1;durP2;ratioP2;P2;SDS_P1;SDS_P2;PMS_P1;PMS_P2;Temp;Humidity;BMP_temperature;BMP_pressure;BME280_temperature;BME280_humidity;BME280_pressure;Samples;Min_cycle;Max_cycle;Signal;HPM_P1;HPM_P2
2022/01/08 00:01:18;;;;;;;9.50;9.20;;;1.10;99.90;;;;;;5075368;28;20225;-85
2022/01/08 00:03:51;;;;;;;9.60;9.30;;;1.00;99.90;;;;;;5076382;28;20283;-86
2022/01/08 00:06:26;;;;;;;9.30;9.00;;;1.00;99.90;;;;;;5075505;28;20261;-85
2022/01/08 00:08:54;;;;;;;9.40;9.10;;;0.90;99.90;;;;;;5068838;28;20380;-85
2022/01/08 00:11:26;;;;;;;9.40;9.10;;;0.90;99.90;;;;;;5085267;28;20253;-85
2022/01/08 00:13:54;;;;;;;9.30;9.00;;;0.80;99.90;;;;;;5080105;28;20241;-84
2022/01/08 00:16:22;;;;;;;9.20;8.90;;;0.80;99.90;;;;;;5077979;28;20256;-84
2022/01/08 00:19:01;;;;;;;9.20;8.90;;;0.80;99.90;;;;;;5077531;28;20222;-84
2022/01/08 00:21:29;;;;;;;9.30;9.00;;;0.80;99.90;;;;;;5079719;28;20260;-85
2022/01/08 00:23:58;;;;;;;9.50;9.20;;;0.70;99.90;;;;;;5078820;28;20592;-85
2022/01/08 00:26:27;;;;;;;9.53;9.23;;;0.70;99.90;;;;;;5079003;28;20252;-85
2022/01/08 00:28:59;;;;;;;9.30;9.00;;;0.70;99.90;;;;;;5078483;28;20230;-86
2022/01/08 00:31:27;;;;;;;9.70;9.40;;;0.70;99.90;;;;;;5079852;28;20257;-85
2022/01/08 00:34:07;;;;;;;9.43;9.13;;;0.80;99.90;;;;;;5080496;28;20312;-83
2022/01/08 00:36:39;;;;;;;9.20;8.90;;;0.80;99.90;;;;;;5080489;28;20226;-83
2022/01/08 00:39:12;;;;;;;9.00;8.70;;;0.90;99.90;;;;;;5081144;28;20222;-84
2022/01/08 00:41:40;;;;;;;9.40;9.10;;;0.90;99.90;;;;;;5080800;28;20301;-84
2022/01/08 00:44:16;;;;;;;9.80;9.50;;;0.90;99.90;;;;;;5086603;28;20479;-84
2022/01/08 00:46:43;;;;;;;9.37;9.07;;;0.90;99.90;;;;;;5108802;22;20245;-78
2022/01/08 00:49:12;;;;;;;9.43;9.13;;;0.90;99.90;;;;;;5083546;28;20248;-80
2022/01/08 00:51:40;;;;;;;9.60;9.30;;;0.90;99.90;;;;;;5083589;28;20226;-78
2022/01/08 00:54:10;;;;;;;8.97;8.67;;;0.90;99.90;;;;;;5086850;28;20305;-79
2022/01/08 00:56:38;;;;;;;9.00;8.70;;;0.90;99.90;;;;;;5087285;28;20237;-78
2022/01/08 00:59:08;;;;;;;9.40;9.10;;;1.00;99.90;;;;;;5085558;28;20234;-78
2022/01/08 01:01:38;;;;;;;9.27;8.97;;;1.00;99.90;;;;;;5086991;28;20588;-78
2022/01/08 01:04:07;;;;;;;9.13;8.83;;;1.00;99.90;;;;;;5085183;28;20288;-79
2022/01/08 01:06:39;;;;;;;9.40;9.10;;;1.00;99.90;;;;;;5091824;28;20233;-78
2022/01/08 01:09:06;;;;;;;9.40;9.10;;;0.90;99.90;;;;;;5085668;28;20233;-77
2022/01/08 01:11:36;;;;;;;9.00;8.70;;;1.00;99.90;;;;;;5084834;28;20245;-78
2022/01/08 01:14:05;;;;;;;9.20;8.90;;;1.00;99.90;;;;;;5082612;28;20705;-78
2022/01/08 01:16:33;;;;;;;8.83;8.60;;;1.00;99.90;;;;;;5084700;28;20241;-79
2022/01/08 01:19:04;;;;;;;9.10;8.80;;;1.00;99.90;;;;;;5081740;28;20234;-78
2022/01/08 01:21:34;;;;;;;9.03;8.73;;;1.00;99.90;;;;;;5083856;28;20209;-78
2022/01/08 01:24:13;;;;;;;9.13;8.83;;;1.00;99.90;;;;;;5083206;28;20700;-78
2022/01/08 01:26:50;;;;;;;9.43;9.13;;;0.90;99.90;;;;;;5082505;28;20268;-78
2022/01/08 01:29:31;;;;;;;9.37;9.07;;;0.90;99.90;;;;;;5082059;28;20230;-77
2022/01/08 01:43:23;;;;;;;9.37;9.07;;;0.80;99.90;;;;;;5082038;28;20214;-79
2022/01/08 01:48:36;;;;;;;9.23;8.93;;;0.70;99.90;;;;;;5083419;28;20226;-78
2022/01/08 01:51:05;;;;;;;9.30;9.00;;;0.70;99.90;;;;;;5083819;28;20286;-79
2022/01/08 01:53:32;;;;;;;9.23;8.93;;;0.70;99.90;;;;;;5083284;28;20237;-78
2022/01/08 01:56:02;;;;;;;9.47;9.17;;;0.70;99.90;;;;;;5082382;28;20245;-78
2022/01/08 01:58:30;;;;;;;9.17;8.87;;;0.70;99.90;;;;;;5082334;28;20226;-78
2022/01/08 02:01:01;;;;;;;9.20;8.90;;;0.70;99.90;;;;;;5082616;28;20299;-78
2022/01/08 02:03:29;;;;;;;9.77;9.47;;;0.70;99.90;;;;;;5081776;28;20230;-80
2022/01/08 02:05:58;;;;;;;9.23;8.93;;;0.70;99.90;;;;;;5081787;28;20230;-78
2022/01/08 02:08:28;;;;;;;9.33;9.03;;;0.70;99.90;;;;;;5082279;28;20225;-78
2022/01/08 02:10:55;;;;;;;9.53;9.23;;;0.70;99.90;;;;;;5080968;28;20310;-78
2022/01/08 02:13:26;;;;;;;9.70;9.40;;;0.70;99.90;;;;;;5081061;28;20226;-78
2022/01/08 02:15:55;;;;;;;9.47;9.17;;;0.70;99.90;;;;;;5080896;28;20288;-78
2022/01/08 02:18:26;;;;;;;9.60;9.30;;;0.70;99.90;;;;;;5081010;28;20258;-78
2022/01/08 02:21:02;;;;;;;9.70;9.40;;;0.70;99.90;;;;;;5080627;28;20230;-78
2022/01/08 02:23:34;;;;;;;9.63;9.33;;;0.70;99.90;;;;;;5081346;28;20225;-79
2022/01/08 02:26:05;;;;;;;9.53;9.23;;;0.70;99.90;;;;;;5082056;28;20252;-79
2022/01/08 02:28:34;;;;;;;9.60;9.30;;;0.60;99.90;;;;;;5082280;28;20222;-80
2022/01/08 02:31:02;;;;;;;9.43;9.13;;;0.60;99.90;;;;;;5086475;28;20272;-79
2022/01/08 02:33:31;;;;;;;9.33;9.03;;;0.60;99.90;;;;;;5084540;28;20309;-79
2022/01/08 02:36:09;;;;;;;9.60;9.30;;;0.60;99.90;;;;;;5081957;28;20238;-80
2022/01/08 02:38:39;;;;;;;9.43;9.13;;;0.50;99.90;;;;;;5081826;28;20233;-79
2022/01/08 02:41:09;;;;;;;9.60;9.30;;;0.40;99.90;;;;;;5080577;28;20236;-80
2022/01/08 02:46:37;;;;;;;9.40;9.10;;;0.40;99.90;;;;;;5044096;28;20237;-81
2022/01/08 02:49:05;;;;;;;9.30;9.00;;;0.40;99.90;;;;;;5082938;28;20230;-80
2022/01/08 02:51:35;;;;;;;9.40;9.10;;;0.40;99.90;;;;;;5080500;28;20230;-80
2022/01/08 02:54:10;;;;;;;9.50;9.20;;;0.40;99.90;;;;;;5080673;28;20214;-80
2022/01/08 02:56:40;;;;;;;9.67;9.37;;;0.40;99.90;;;;;;5080338;28;20237;-80
2022/01/08 02:59:10;;;;;;;9.37;9.07;;;0.30;99.90;;;;;;5080668;28;20326;-79
2022/01/08 03:01:39;;;;;;;9.50;9.20;;;0.30;99.90;;;;;;5080823;28;20237;-80
2022/01/08 03:04:08;;;;;;;9.30;9.00;;;0.30;99.90;;;;;;5080541;28;20288;-80
2022/01/08 03:06:43;;;;;;;9.70;9.40;;;0.30;99.90;;;;;;5080479;28;20296;-79
2022/01/08 03:09:10;;;;;;;9.47;9.17;;;0.30;99.90;;;;;;5080592;28;20230;-80
2022/01/08 03:11:39;;;;;;;9.60;9.30;;;0.30;99.90;;;;;;5080000;28;20304;-80
2022/01/08 03:14:07;;;;;;;9.50;9.20;;;0.30;99.90;;;;;;5080102;28;20225;-80
2022/01/08 03:16:35;;;;;;;9.60;9.30;;;0.30;99.90;;;;;;5081024;28;20256;-80
2022/01/08 03:19:09;;;;;;;9.50;9.20;;;0.30;99.90;;;;;;5080079;28;20230;-79
2022/01/08 03:21:51;;;;;;;9.53;9.23;;;0.30;99.90;;;;;;5080371;28;20241;-80
2022/01/08 03:24:26;;;;;;;9.40;9.10;;;0.30;99.90;;;;;;5080944;28;20238;-79
2022/01/08 03:26:54;;;;;;;9.53;9.23;;;0.30;99.90;;;;;;5083129;28;20268;-79
2022/01/08 03:29:22;;;;;;;9.63;9.33;;;0.40;99.90;;;;;;5081158;28;20230;-80
2022/01/08 03:31:52;;;;;;;9.50;9.20;;;0.40;99.90;;;;;;5080646;28;20307;-80
2022/01/08 03:34:22;;;;;;;9.53;9.23;;;0.40;99.90;;;;;;5079919;28;20726;-80
2022/01/08 03:36:53;;;;;;;9.30;9.00;;;0.40;99.90;;;;;;5080053;28;20234;-80
2022/01/08 03:39:22;;;;;;;9.50;9.20;;;0.40;99.90;;;;;;5080649;28;20230;-80
2022/01/08 03:41:49;;;;;;;9.67;9.37;;;0.40;99.90;;;;;;5080037;28;20261;-80
2022/01/08 03:44:19;;;;;;;9.60;9.30;;;0.40;99.90;;;;;;5079703;28;20272;-80
2022/01/08 03:46:49;;;;;;;9.30;9.00;;;0.40;99.90;;;;;;5078823;28;20240;-79
2022/01/08 03:49:27;;;;;;;9.50;9.20;;;0.40;99.90;;;;;;5079706;28;20689;-80
2022/01/08 03:51:58;;;;;;;9.43;9.13;;;0.40;99.90;;;;;;5079809;28;20238;-80
2022/01/08 03:54:26;;;;;;;9.57;9.27;;;0.50;99.90;;;;;;5084561;28;20221;-80
2022/01/08 03:56:55;;;;;;;9.40;9.10;;;0.60;99.90;;;;;;5084420;28;20234;-80
2022/01/08 03:59:24;;;;;;;9.60;9.30;;;0.60;99.90;;;;;;5088958;28;20234;-79
2022/01/08 04:01:53;;;;;;;9.63;9.33;;;0.60;99.90;;;;;;5086696;28;20214;-81
2022/01/08 04:04:23;;;;;;;10.00;9.70;;;0.70;99.90;;;;;;5084832;28;20292;-80
2022/01/08 04:06:52;;;;;;;9.70;9.40;;;0.70;99.90;;;;;;5084035;28;20292;-80
2022/01/08 04:09:30;;;;;;;9.60;9.30;;;0.80;99.90;;;;;;5085216;28;20256;-80
2022/01/08 04:12:01;;;;;;;9.50;9.20;;;0.80;99.90;;;;;;5089281;28;20249;-80
2022/01/08 04:14:36;;;;;;;9.70;9.40;;;0.80;99.90;;;;;;5089686;28;20920;-80
2022/01/08 04:17:09;;;;;;;9.60;9.30;;;0.80;99.90;;;;;;5088914;28;20233;-80
2022/01/08 04:19:37;;;;;;;9.60;9.30;;;0.70;99.90;;;;;;5086174;28;20283;-80
2022/01/08 04:22:12;;;;;;;9.63;9.33;;;0.70;99.90;;;;;;5085322;28;20226;-80
2022/01/08 04:24:45;;;;;;;9.80;9.50;;;0.70;99.90;;;;;;5085537;28;20325;-80
2022/01/08 04:27:15;;;;;;;9.57;9.27;;;0.80;99.90;;;;;;5087629;28;20234;-80
2022/01/08 04:29:44;;;;;;;9.60;9.30;;;0.80;99.90;;;;;;5088453;28;20237;-80
2022/01/08 04:32:13;;;;;;;9.63;9.33;;;0.80;99.90;;;;;;5087368;28;20249;-80
2022/01/08 04:34:42;;;;;;;9.90;9.60;;;0.70;99.90;;;;;;5086016;28;20234;-81
2022/01/08 04:37:12;;;;;;;9.70;9.40;;;0.70;99.90;;;;;;5084926;28;20312;-80
2022/01/08 04:42:28;;;;;;;9.30;9.00;;;0.70;99.90;;;;;;5084075;28;20226;-80
2022/01/08 04:44:58;;;;;;;9.37;9.07;;;0.70;99.90;;;;;;5084304;28;20234;-80
2022/01/08 04:47:27;;;;;;;9.20;8.90;;;0.60;99.90;;;;;;5082934;28;20245;-80
2022/01/08 04:49:55;;;;;;;9.30;9.00;;;0.60;99.90;;;;;;5083071;28;20230;-80
2022/01/08 04:52:27;;;;;;;9.40;9.10;;;0.60;99.90;;;;;;5082353;28;20242;-80
2022/01/08 04:54:58;;;;;;;9.40;9.10;;;0.60;99.90;;;;;;5083351;28;20281;-80
2022/01/08 04:57:26;;;;;;;9.20;8.90;;;0.60;99.90;;;;;;5082979;28;20241;-80
2022/01/08 04:59:55;;;;;;;9.40;9.10;;;0.60;99.90;;;;;;5083039;28;20234;-80
2022/01/08 05:02:25;;;;;;;9.57;9.27;;;0.60;99.90;;;;;;5083547;28;20233;-80
2022/01/08 05:04:54;;;;;;;9.27;8.97;;;0.50;99.90;;;;;;5083024;28;20222;-80
2022/01/08 05:07:22;;;;;;;9.30;9.00;;;0.60;99.90;;;;;;5091785;28;20244;-79
2022/01/08 05:09:53;;;;;;;9.10;8.80;;;0.60;99.90;;;;;;5097867;28;20226;-79
2022/01/08 05:12:33;;;;;;;9.30;9.00;;;0.60;99.90;;;;;;5095312;28;20303;-80
2022/01/08 05:15:01;;;;;;;9.20;8.90;;;0.60;99.90;;;;;;5088497;28;20248;-80
2022/01/08 05:17:33;;;;;;;9.17;8.87;;;0.60;99.90;;;;;;5086065;28;20253;-80
2022/01/08 05:20:03;;;;;;;9.30;9.00;;;0.60;99.90;;;;;;5084753;28;20230;-80
2022/01/08 05:22:41;;;;;;;9.27;8.97;;;0.60;99.90;;;;;;5083710;28;20244;-80
2022/01/08 05:25:16;;;;;;;8.93;8.63;;;0.60;99.90;;;;;;5084339;28;20241;-80
2022/01/08 05:27:56;;;;;;;8.90;8.60;;;0.60;99.90;;;;;;5083572;28;20300;-81
2022/01/08 05:30:25;;;;;;;8.90;8.60;;;0.60;99.90;;;;;;5085103;28;20238;-79
2022/01/08 05:32:53;;;;;;;9.30;9.00;;;0.70;99.90;;;;;;5084164;28;20272;-80
2022/01/08 05:35:22;;;;;;;8.93;8.63;;;0.70;99.90;;;;;;5084427;28;20230;-78
2022/01/08 05:37:50;;;;;;;9.03;8.73;;;0.70;99.90;;;;;;5093352;28;20260;-78
2022/01/08 05:40:18;;;;;;;9.23;8.93;;;0.70;99.90;;;;;;5095597;28;20284;-78
2022/01/08 05:42:49;;;;;;;9.13;8.83;;;0.70;99.90;;;;;;5097054;28;20261;-78
2022/01/08 05:45:23;;;;;;;9.10;8.80;;;0.70;99.90;;;;;;5087748;28;20231;-78
2022/01/08 05:47:51;;;;;;;9.13;8.83;;;0.70;99.90;;;;;;5085308;28;20238;-77
2022/01/08 05:50:20;;;;;;;9.13;8.83;;;0.70;99.90;;;;;;5084513;28;20234;-79
2022/01/08 05:52:50;;;;;;;9.13;8.83;;;0.70;99.90;;;;;;5082311;28;20245;-79
2022/01/08 05:55:18;;;;;;;9.23;8.93;;;0.70;99.90;;;;;;5082612;28;20275;-79
2022/01/08 05:57:49;;;;;;;9.10;8.80;;;0.70;99.90;;;;;;5082393;28;20233;-78
2022/01/08 06:00:17;;;;;;;9.20;8.90;;;0.70;99.90;;;;;;5082039;28;20296;-78
2022/01/08 06:02:45;;;;;;;9.20;8.90;;;0.70;99.90;;;;;;5081376;28;20728;-78
2022/01/08 06:05:13;;;;;;;9.30;9.00;;;0.70;99.90;;;;;;5081997;28;20283;-79
2022/01/08 06:07:40;;;;;;;9.20;8.90;;;0.70;99.90;;;;;;5081905;28;20264;-79
2022/01/08 06:10:09;;;;;;;9.30;9.00;;;0.70;99.90;;;;;;5081540;28;20257;-77
2022/01/08 06:12:36;;;;;;;9.27;8.97;;;0.70;99.90;;;;;;5080743;28;20268;-78
2022/01/08 06:15:06;;;;;;;9.20;8.90;;;0.70;99.90;;;;;;5081080;28;20308;-78
2022/01/08 06:17:34;;;;;;;9.20;8.90;;;0.70;99.90;;;;;;5080851;28;20241;-78
2022/01/08 06:20:02;;;;;;;9.20;8.90;;;0.70;99.90;;;;;;5081273;28;20280;-79
2022/01/08 06:22:30;;;;;;;9.30;9.00;;;0.70;99.90;;;;;;5081606;28;20720;-78
2022/01/08 06:24:58;;;;;;;9.27;8.97;;;0.70;99.90;;;;;;5083315;28;20234;-77
2022/01/08 06:27:26;;;;;;;9.27;8.97;;;0.70;99.90;;;;;;5081718;28;20291;-79
2022/01/08 06:29:53;;;;;;;9.10;8.80;;;0.70;99.90;;;;;;5081869;28;20284;-79
2022/01/08 06:32:23;;;;;;;8.90;8.60;;;0.70;99.90;;;;;;5081592;28;20241;-79
2022/01/08 06:34:51;;;;;;;9.07;8.77;;;0.70;99.90;;;;;;5081976;28;20230;-78
2022/01/08 06:37:19;;;;;;;9.10;8.80;;;0.70;99.90;;;;;;5081703;28;20238;-79
2022/01/08 06:39:49;;;;;;;9.33;9.03;;;0.70;99.90;;;;;;5081283;28;20238;-79
2022/01/08 06:42:16;;;;;;;9.23;8.93;;;0.70;99.90;;;;;;5081274;28;20304;-78
2022/01/08 06:44:44;;;;;;;9.30;9.00;;;0.70;99.90;;;;;;5080981;28;20237;-78
2022/01/08 06:47:11;;;;;;;9.30;9.00;;;0.70;99.90;;;;;;5117107;22;20272;-79
2022/01/08 06:49:40;;;;;;;9.20;8.90;;;0.70;99.90;;;;;;5128889;27;20262;-79
2022/01/08 06:52:08;;;;;;;9.20;8.90;;;0.80;99.90;;;;;;5124706;27;20282;-79
2022/01/08 06:54:36;;;;;;;9.07;8.77;;;0.80;99.90;;;;;;5123016;28;20224;-79
2022/01/08 06:57:04;;;;;;;9.10;8.80;;;0.80;99.90;;;;;;5122594;28;20233;-79
2022/01/08 06:59:32;;;;;;;9.10;8.80;;;0.80;99.90;;;;;;5124582;27;20240;-80
2022/01/08 07:02:00;;;;;;;9.40;9.10;;;0.80;99.90;;;;;;5122979;28;20248;-80
2022/01/08 07:04:28;;;;;;;9.50;9.20;;;0.90;99.90;;;;;;5122063;28;20251;-79
2022/01/08 07:06:58;;;;;;;9.43;9.13;;;0.90;99.90;;;;;;5121888;28;20261;-79
2022/01/08 07:09:26;;;;;;;9.30;9.00;;;0.90;99.90;;;;;;5122082;28;20229;-79
2022/01/08 07:11:54;;;;;;;9.43;9.13;;;0.90;99.90;;;;;;5122106;28;20221;-79
2022/01/08 07:14:22;;;;;;;9.60;9.30;;;0.90;99.90;;;;;;5121935;28;20233;-79
2022/01/08 07:16:50;;;;;;;9.60;9.30;;;0.90;99.90;;;;;;5122064;27;20258;-79
2022/01/08 07:19:18;;;;;;;9.50;9.20;;;0.90;99.90;;;;;;5122664;28;20255;-79
2022/01/08 07:21:46;;;;;;;9.50;9.20;;;0.90;99.90;;;;;;5122612;28;20228;-79
2022/01/08 07:24:15;;;;;;;9.53;9.23;;;0.90;99.90;;;;;;5122591;28;20216;-79
2022/01/08 07:26:43;;;;;;;9.70;9.40;;;0.90;99.90;;;;;;5122939;28;20233;-78
2022/01/08 07:29:11;;;;;;;9.67;9.37;;;1.00;99.90;;;;;;5136483;28;20294;-79
2022/01/08 07:31:39;;;;;;;9.77;9.47;;;1.00;99.90;;;;;;5129171;28;20285;-79
2022/01/08 07:34:07;;;;;;;9.60;9.30;;;1.00;99.90;;;;;;5125455;28;20220;-79
2022/01/08 07:36:34;;;;;;;9.60;9.30;;;1.00;99.90;;;;;;5123827;28;20297;-79
2022/01/08 07:39:04;;;;;;;9.33;9.03;;;1.00;99.90;;;;;;5121977;27;20236;-79
2022/01/08 07:41:34;;;;;;;9.57;9.27;;;0.90;99.90;;;;;;5121372;28;20228;-79
2022/01/08 07:44:01;;;;;;;9.50;9.20;;;1.00;99.90;;;;;;5121476;28;20244;-79
2022/01/08 07:46:29;;;;;;;10.00;9.70;;;1.00;99.90;;;;;;5122004;28;20244;-78
2022/01/08 07:48:57;;;;;;;9.70;9.40;;;1.10;99.90;;;;;;5123502;28;20225;-79
2022/01/08 07:51:25;;;;;;;9.60;9.30;;;1.00;99.90;;;;;;5123194;28;20224;-79
2022/01/08 07:53:53;;;;;;;9.80;9.50;;;1.00;99.90;;;;;;5121372;28;20233;-79
2022/01/08 07:56:20;;;;;;;9.30;9.00;;;1.10;99.90;;;;;;5120529;28;20228;-78
2022/01/08 07:58:49;;;;;;;9.37;9.07;;;1.10;99.90;;;;;;5121277;28;20247;-80
2022/01/08 08:01:18;;;;;;;9.50;9.20;;;1.10;99.90;;;;;;5124907;28;20232;-82
2022/01/08 08:03:46;;;;;;;9.60;9.30;;;1.20;99.90;;;;;;5124693;27;20224;-82
2022/01/08 08:06:14;;;;;;;9.60;9.30;;;1.20;99.90;;;;;;5126061;27;20311;-82
2022/01/08 08:08:42;;;;;;;9.77;9.47;;;1.30;99.90;;;;;;5126435;27;20237;-81
2022/01/08 08:11:09;;;;;;;9.50;9.20;;;1.30;99.90;;;;;;5126561;27;20234;-81
2022/01/08 08:13:37;;;;;;;9.03;8.73;;;1.30;99.90;;;;;;5125287;28;20229;-82
2022/01/08 08:16:08;;;;;;;9.47;9.17;;;1.30;99.90;;;;;;5125748;28;20258;-82
2022/01/08 08:18:35;;;;;;;9.20;8.90;;;1.30;99.90;;;;;;5125338;28;20229;-83
2022/01/08 08:21:03;;;;;;;9.40;9.10;;;1.30;99.90;;;;;;5124121;28;20286;-83
2022/01/08 08:23:31;;;;;;;9.07;8.77;;;1.40;99.90;;;;;;5123816;28;20231;-84
2022/01/08 08:25:59;;;;;;;9.23;8.93;;;1.30;99.90;;;;;;5122992;28;20255;-81
2022/01/08 08:28:27;;;;;;;9.23;8.93;;;1.30;99.90;;;;;;5122905;28;20251;-80
2022/01/08 08:30:56;;;;;;;9.30;9.00;;;1.40;99.90;;;;;;5123620;28;20220;-81
2022/01/08 08:33:25;;;;;;;9.23;8.93;;;1.50;99.90;;;;;;5123837;27;20275;-81
2022/01/08 08:35:59;;;;;;;9.50;9.20;;;1.40;99.90;;;;;;5125055;27;20237;-82
2022/01/08 08:38:27;;;;;;;9.40;9.10;;;1.40;99.90;;;;;;5123734;27;20229;-80
2022/01/08 08:40:55;;;;;;;9.50;9.20;;;1.40;99.90;;;;;;5127184;28;20320;-80
2022/01/08 08:43:22;;;;;;;9.33;9.03;;;1.40;99.90;;;;;;5127568;27;20267;-81
2022/01/08 08:45:52;;;;;;;9.33;9.03;;;1.40;99.90;;;;;;5127643;28;20240;-81
2022/01/08 08:48:20;;;;;;;9.60;9.30;;;1.40;99.90;;;;;;5133984;28;20267;-81
2022/01/08 08:50:49;;;;;;;9.30;9.00;;;1.40;99.90;;;;;;5133835;28;20232;-81
2022/01/08 08:53:17;;;;;;;9.60;9.30;;;1.40;99.90;;;;;;5130276;28;20225;-83
2022/01/08 08:55:44;;;;;;;9.50;9.20;;;1.40;99.90;;;;;;5129874;28;20225;-83
2022/01/08 08:58:12;;;;;;;9.60;9.30;;;1.50;99.90;;;;;;5130548;27;20228;-81
2022/01/08 09:00:40;;;;;;;9.50;9.20;;;1.50;99.90;;;;;;5129181;28;20221;-81
2022/01/08 09:03:08;;;;;;;9.43;9.13;;;1.50;99.90;;;;;;5129010;28;20225;-82
2022/01/08 09:05:36;;;;;;;9.70;9.40;;;1.50;99.90;;;;;;5138345;28;20258;-80
2022/01/08 09:08:05;;;;;;;9.60;9.30;;;1.40;99.90;;;;;;5133518;27;20322;-81
2022/01/08 09:10:33;;;;;;;9.90;9.60;;;1.40;99.90;;;;;;5126396;28;20221;-80
2022/01/08 09:13:01;;;;;;;10.00;9.70;;;1.50;99.90;;;;;;5128686;28;20225;-82
2022/01/08 09:15:29;;;;;;;9.90;9.60;;;1.50;99.90;;;;;;5127768;28;20233;-81
2022/01/08 09:17:59;;;;;;;9.63;9.33;;;1.40;99.90;;;;;;5127982;28;20225;-81
2022/01/08 09:20:28;;;;;;;9.97;9.67;;;1.40;99.90;;;;;;5128915;28;20225;-81
2022/01/08 09:22:56;;;;;;;10.20;9.90;;;1.30;99.90;;;;;;5128334;28;20217;-81
2022/01/08 09:25:26;;;;;;;9.80;9.50;;;1.30;99.90;;;;;;5125345;28;20225;-81
2022/01/08 09:27:54;;;;;;;9.73;9.43;;;1.30;99.90;;;;;;5127430;28;20286;-81
2022/01/08 09:30:22;;;;;;;10.00;9.70;;;1.20;99.90;;;;;;5128832;28;20217;-82
2022/01/08 09:32:50;;;;;;;10.00;9.70;;;1.20;99.90;;;;;;5105448;28;20256;-81
2022/01/08 09:35:18;;;;;;;9.90;9.60;;;1.20;99.90;;;;;;5106839;28;20259;-80
2022/01/08 09:37:46;;;;;;;9.80;9.50;;;1.20;99.90;;;;;;5107685;28;20298;-80
2022/01/08 09:40:18;;;;;;;9.80;9.50;;;1.20;99.90;;;;;;5125152;28;20450;-81
2022/01/08 09:42:47;;;;;;;9.63;9.33;;;1.20;99.90;;;;;;5127552;27;20223;-82
2022/01/08 09:45:16;;;;;;;9.87;9.57;;;1.20;99.90;;;;;;5128084;28;20289;-82
2022/01/08 09:47:43;;;;;;;9.70;9.40;;;1.20;99.90;;;;;;5127824;28;20240;-82
2022/01/08 09:50:12;;;;;;;9.57;9.27;;;1.20;99.90;;;;;;5126968;27;20247;-86
2022/01/08 09:52:40;;;;;;;9.73;9.43;;;1.20;99.90;;;;;;5127520;27;20296;-83
2022/01/08 09:55:10;;;;;;;10.00;9.70;;;1.20;99.90;;;;;;5129784;27;20243;-82
2022/01/08 09:57:37;;;;;;;10.17;9.87;;;1.10;99.90;;;;;;5131326;28;20315;-82
2022/01/08 10:00:15;;;;;;;10.00;9.70;;;1.20;99.90;;;;;;5131036;28;20251;-82
2022/01/08 10:02:44;;;;;;;10.20;9.90;;;1.20;99.90;;;;;;5130469;28;20301;-82
2022/01/08 10:05:14;;;;;;;10.17;9.87;;;1.20;99.90;;;;;;5130189;28;20311;-83
2022/01/08 10:07:43;;;;;;;10.00;9.70;;;1.20;99.90;;;;;;5129447;28;20243;-82
2022/01/08 10:10:17;;;;;;;9.90;9.60;;;1.10;99.90;;;;;;5129269;28;20236;-82
2022/01/08 10:12:50;;;;;;;9.97;9.67;;;1.10;99.90;;;;;;5127683;28;20213;-81
2022/01/08 10:18:25;;;;;;;10.03;9.73;;;1.10;99.90;;;;;;5137476;28;20228;-81
2022/01/08 10:20:55;;;;;;;10.00;9.70;;;1.10;99.90;;;;;;5128296;28;20229;-81
2022/01/08 10:23:25;;;;;;;10.10;9.80;;;1.00;99.90;;;;;;5129335;28;20264;-81
2022/01/08 10:26:00;;;;;;;10.10;9.80;;;1.00;99.90;;;;;;5128299;28;20278;-82
2022/01/08 10:28:40;;;;;;;9.83;9.53;;;1.00;99.90;;;;;;5126718;28;20232;-81
2022/01/08 10:31:15;;;;;;;9.87;9.57;;;1.00;99.90;;;;;;5123490;28;20232;-80
2022/01/08 10:33:45;;;;;;;10.00;9.70;;;1.00;99.90;;;;;;5122092;27;20293;-80
2022/01/08 10:36:14;;;;;;;9.80;9.50;;;1.00;99.90;;;;;;5123293;28;20278;-80
2022/01/08 10:38:42;;;;;;;9.80;9.50;;;1.00;99.90;;;;;;5122062;28;20246;-80
2022/01/08 10:41:16;;;;;;;9.60;9.30;;;1.00;99.90;;;;;;5122560;28;20225;-82
2022/01/08 10:43:45;;;;;;;9.43;9.13;;;1.00;99.90;;;;;;5123493;28;20220;-81
2022/01/08 10:46:16;;;;;;;9.40;9.10;;;1.00;99.90;;;;;;5124104;28;20236;-82
2022/01/08 10:48:48;;;;;;;9.70;9.40;;;1.00;99.90;;;;;;5130691;27;20233;-81
2022/01/08 10:51:21;;;;;;;9.40;9.10;;;1.00;99.90;;;;;;5130446;27;20236;-82
2022/01/08 10:53:58;;;;;;;9.60;9.30;;;1.00;99.90;;;;;;5120294;28;20246;-83
2022/01/08 10:56:29;;;;;;;9.50;9.20;;;1.00;99.90;;;;;;5127561;28;20232;-82
2022/01/08 10:59:19;;;;;;;9.90;9.60;;;1.00;99.90;;;;;;5127539;27;20715;-82
2022/01/08 11:01:58;;;;;;;9.90;9.60;;;1.00;99.90;;;;;;5126202;27;20232;-82
2022/01/08 11:04:43;;;;;;;10.00;9.70;;;1.10;99.90;;;;;;5127087;28;20308;-82
2022/01/08 11:07:13;;;;;;;10.00;9.70;;;1.10;99.90;;;;;;5126955;27;20228;-81
2022/01/08 11:09:44;;;;;;;10.40;10.10;;;1.10;99.90;;;;;;5127357;27;20282;-82
2022/01/08 11:12:16;;;;;;;10.20;9.90;;;1.10;99.90;;;;;;5125403;28;20217;-83
2022/01/08 11:17:39;;;;;;;10.07;9.77;;;1.20;99.90;;;;;;5126327;28;20229;-82
2022/01/08 11:20:14;;;;;;;9.87;9.57;;;1.20;99.90;;;;;;5126173;28;20259;-83
2022/01/08 11:22:44;;;;;;;10.10;9.80;;;1.30;99.90;;;;;;5125772;27;20221;-82
2022/01/08 11:25:15;;;;;;;9.97;9.67;;;1.30;99.90;;;;;;5124667;28;20259;-84
2022/01/08 11:27:50;;;;;;;9.90;9.60;;;1.30;99.90;;;;;;5124644;28;20237;-82
2022/01/08 11:30:21;;;;;;;10.33;10.03;;;1.40;99.90;;;;;;5126033;28;20224;-82
2022/01/08 11:32:53;;;;;;;10.20;9.90;;;1.50;99.90;;;;;;5121625;28;20228;-82
2022/01/08 11:35:22;;;;;;;9.90;9.60;;;1.50;99.90;;;;;;5123091;27;20292;-82
2022/01/08 11:37:52;;;;;;;9.80;9.50;;;1.60;99.90;;;;;;5123749;28;20358;-82
2022/01/08 11:40:23;;;;;;;9.50;9.20;;;1.70;99.90;;;;;;5122820;28;20229;-82
2022/01/08 11:42:51;;;;;;;9.93;9.63;;;1.70;99.90;;;;;;5122201;28;20300;-82
2022/01/08 11:45:25;;;;;;;9.40;9.10;;;2.00;99.90;;;;;;5121690;27;20309;-83
2022/01/08 11:47:57;;;;;;;9.23;8.93;;;2.30;99.90;;;;;;5122749;27;20244;-83
2022/01/08 11:50:30;;;;;;;9.00;8.80;;;2.60;99.90;;;;;;5123870;28;20229;-82
2022/01/08 11:53:15;;;;;;;9.00;8.80;;;2.50;99.90;;;;;;5118304;28;20229;-83
2022/01/08 11:55:44;;;;;;;8.80;8.60;;;2.40;99.90;;;;;;5119144;27;20236;-83
2022/01/08 11:58:18;;;;;;;8.93;8.73;;;2.40;99.90;;;;;;5119061;28;20224;-82
2022/01/08 12:00:52;;;;;;;8.60;8.40;;;2.50;99.90;;;;;;5119369;28;20274;-82
2022/01/08 12:03:39;;;;;;;8.80;8.60;;;2.60;99.90;;;;;;5119946;28;20233;-81
2022/01/08 12:06:33;;;;;;;9.10;8.85;;;2.70;99.90;;;;;;5117948;28;20429;-82
2022/01/08 12:09:17;;;;;;;8.80;8.60;;;3.00;99.90;;;;;;5120119;27;20232;-82
2022/01/08 12:11:58;;;;;;;8.90;8.70;;;3.10;99.90;;;;;;5118093;28;20747;-84
2022/01/08 12:14:28;;;;;;;8.90;8.70;;;3.00;99.90;;;;;;5121007;28;21053;-82
2022/01/08 12:16:57;;;;;;;8.93;8.73;;;2.90;99.90;;;;;;5122510;28;20241;-82
2022/01/08 12:19:34;;;;;;;8.80;8.60;;;2.90;99.90;;;;;;5122902;28;20233;-81
2022/01/08 12:22:32;;;;;;;8.50;8.30;;;2.90;99.90;;;;;;5122354;27;20220;-82
2022/01/08 12:25:03;;;;;;;8.50;8.30;;;3.00;99.90;;;;;;5121805;28;20221;-82
2022/01/08 12:27:45;;;;;;;8.70;8.50;;;3.40;99.90;;;;;;5122619;28;20217;-82
2022/01/08 12:30:43;;;;;;;8.80;8.60;;;3.60;99.90;;;;;;5123962;28;20238;-83
2022/01/08 12:33:20;;;;;;;8.20;8.00;;;4.00;99.90;;;;;;5079961;28;20226;-83
2022/01/08 12:35:54;;;;;;;8.23;8.03;;;4.30;99.90;;;;;;5115117;27;20232;-82
2022/01/08 12:38:29;;;;;;;8.17;7.97;;;4.50;99.90;;;;;;5122229;28;20228;-83
2022/01/08 12:40:58;;;;;;;7.90;7.70;;;4.30;99.90;;;;;;5122971;28;20246;-82
2022/01/08 12:43:37;;;;;;;7.93;7.73;;;4.10;99.90;;;;;;5122475;27;20229;-84
2022/01/08 12:46:22;;;;;;;8.10;7.90;;;3.70;99.90;;;;;;5121745;27;20231;-82
2022/01/08 12:49:15;;;;;;;8.17;7.97;;;3.70;99.90;;;;;;5122678;28;20316;-82
2022/01/08 12:52:06;;;;;;;7.90;7.70;;;3.50;99.90;;;;;;5125544;27;20253;-82
2022/01/08 12:54:36;;;;;;;8.17;7.97;;;3.50;99.90;;;;;;5145461;22;20233;-82
2022/01/08 12:57:05;;;;;;;8.50;8.30;;;3.60;99.90;;;;;;5112134;28;20324;-83
2022/01/08 12:59:44;;;;;;;8.30;8.10;;;3.70;99.90;;;;;;5102364;28;20248;-85
2022/01/08 13:02:12;;;;;;;8.20;8.00;;;3.60;99.90;;;;;;5089117;28;20240;-84
2022/01/08 13:04:43;;;;;;;8.00;7.80;;;3.40;99.90;;;;;;5094884;28;20356;-84
2022/01/08 13:07:49;;;;;;;8.40;8.20;;;3.30;99.90;;;;;;5086318;28;20227;-84
2022/01/08 13:10:17;;;;;;;8.50;8.30;;;3.20;99.90;;;;;;5084393;28;20229;-84
2022/01/08 13:12:45;;;;;;;8.43;8.23;;;3.00;99.90;;;;;;5083530;28;20305;-84
2022/01/08 13:15:15;;;;;;;8.20;8.00;;;2.90;99.90;;;;;;5085273;28;20238;-84
2022/01/08 13:17:44;;;;;;;8.30;8.10;;;2.90;99.90;;;;;;5094710;27;20210;-84
2022/01/08 13:20:13;;;;;;;8.40;8.20;;;2.90;99.90;;;;;;5101095;27;20206;-85
2022/01/08 13:22:42;;;;;;;8.10;7.90;;;2.90;99.90;;;;;;5100073;27;20248;-83
2022/01/08 13:25:41;;;;;;;8.40;8.20;;;3.10;99.90;;;;;;5085872;28;20288;-84
2022/01/08 13:28:10;;;;;;;8.30;8.10;;;3.10;99.90;;;;;;5084129;28;20222;-84
2022/01/08 13:30:39;;;;;;;8.50;8.30;;;3.10;99.90;;;;;;5083426;28;20226;-83
2022/01/08 13:33:08;;;;;;;8.60;8.40;;;3.00;99.90;;;;;;5084059;28;20233;-83
2022/01/08 13:35:38;;;;;;;8.53;8.33;;;3.00;99.90;;;;;;5083073;28;20304;-83
2022/01/08 13:38:07;;;;;;;8.47;8.27;;;3.00;99.90;;;;;;5090768;28;20260;-84
2022/01/08 13:40:36;;;;;;;8.23;8.03;;;2.90;99.90;;;;;;5085167;28;20230;-84